ジャカルタ の空港の天気 - METARとTAF

スカルノハッタ国際空港 ( WIII / CGK ) - インドネシア バンテン州、Cengkareng ( ジャカルタ近郊)
飛行場実況気象(Metar)
観測時間12/10 12:00 WIB (12/10 05:00 UTC)
風向・風速不定 2m/s
視程6000m
天気現象
少しの雲 雲底高度 550m
全天の4割程度の雲 雲底高度 610m
気温29℃
湿度74%
気圧1009hPa
METARWIII 100500Z VRB03KT 6000 FEW018CB SCT020 29/24 Q1009 NOSIG RMK CB TO W
過去の天気等 Google飛行場航空写真 Wunderground天気予報

過去48時間のMETAR

飛行場予報(TAF)
発表時間: 12/10 07:00 WIB (12/10 00:00 UTC)
予報対象時間: 10日10時 WIB ~ 11日13時 WIB
風向・風速南南西 5m/s
視程3000m
天気現象雷雨
少しの積乱雲 雲底高度 550m
全天を覆う雲 雲底高度 550m
10日13時 WIB ~ 10日15時 WIB に徐々に
風向・風速北北東 4m/s
視程6000m
全天の4割程度の雲 雲底高度 610m
TAF COR WIII 100000Z 1003/1106 20010KT 3000 TSRA FEW018CB OVC018
BECMG 1006/1008 02008KT 6000 SCT020